地図

経路データ

SID SEASON NUMBER BASIN SUBBASIN NAME ISO_TIME NATURE LAT LON WMO_WIND WMO_PRES WMO_AGENCY TRACK_TYPE DIST2LAND LANDFALL IFLAG USA_AGENCY USA_ATCF_ID USA_LAT USA_LON USA_RECORD USA_STATUS USA_WIND USA_PRES USA_SSHS USA_R34_NE USA_R34_SE USA_R34_SW USA_R34_NW USA_R50_NE USA_R50_SE USA_R50_SW USA_R50_NW USA_R64_NE USA_R64_SE USA_R64_SW USA_R64_NW USA_POCI USA_ROCI USA_RMW USA_EYE TOKYO_LAT TOKYO_LON TOKYO_GRADE TOKYO_WIND TOKYO_PRES TOKYO_R50_DIR TOKYO_R50_LONG TOKYO_R50_SHORT TOKYO_R30_DIR TOKYO_R30_LONG TOKYO_R30_SHORT TOKYO_LAND CMA_LAT CMA_LON CMA_CAT CMA_WIND CMA_PRES HKO_LAT HKO_LON HKO_CAT HKO_WIND HKO_PRES NEWDELHI_LAT NEWDELHI_LON NEWDELHI_GRADE NEWDELHI_WIND NEWDELHI_PRES NEWDELHI_CI NEWDELHI_DP NEWDELHI_POCI REUNION_LAT REUNION_LON REUNION_TYPE REUNION_WIND REUNION_PRES REUNION_TNUM REUNION_CI REUNION_RMW REUNION_R34_NE REUNION_R34_SE REUNION_R34_SW REUNION_R34_NW REUNION_R50_NE REUNION_R50_SE REUNION_R50_SW REUNION_R50_NW REUNION_R64_NE REUNION_R64_SE REUNION_R64_SW REUNION_R64_NW BOM_LAT BOM_LON BOM_TYPE BOM_WIND BOM_PRES BOM_TNUM BOM_CI BOM_RMW BOM_R34_NE BOM_R34_SE BOM_R34_SW BOM_R34_NW BOM_R50_NE BOM_R50_SE BOM_R50_SW BOM_R50_NW BOM_R64_NE BOM_R64_SE BOM_R64_SW BOM_R64_NW BOM_ROCI BOM_POCI BOM_EYE BOM_POS_METHOD BOM_PRES_METHOD NADI_LAT NADI_LON NADI_CAT NADI_WIND NADI_PRES WELLINGTON_LAT WELLINGTON_LON WELLINGTON_WIND WELLINGTON_PRES DS824_LAT DS824_LON DS824_STAGE DS824_WIND DS824_PRES TD9636_LAT TD9636_LON TD9636_STAGE TD9636_WIND TD9636_PRES TD9635_LAT TD9635_LON TD9635_WIND TD9635_PRES TD9635_ROCI NEUMANN_LAT NEUMANN_LON NEUMANN_CLASS NEUMANN_WIND NEUMANN_PRES MLC_LAT MLC_LON MLC_CLASS MLC_WIND MLC_PRES USA_GUST BOM_GUST BOM_GUST_PER REUNION_GUST REUNION_GUST_PER USA_SEAHGT USA_SEARAD_NE USA_SEARAD_SE USA_SEARAD_SW USA_SEARAD_NW STORM_SPEED STORM_DIR
1948190N28271 1948 43 NA GM NOT_NAMED 1948-07-07 18:00:00 TS 27.5000 -89.4000 30 hurdat_atl main 170 159 O_____________ hurdat_atl AL021948 27.5000 -89.4000 TD 30 -1 1 11
1948190N28271 1948 43 NA GM NOT_NAMED 1948-07-07 21:00:00 TS 27.5550 -89.3950 main 159 159 P_____________ AL021948 27.5550 -89.3950 TD 30 -1 1 0
1948190N28271 1948 43 NA GM NOT_NAMED 1948-07-08 00:00:00 TS 27.6000 -89.4000 30 hurdat_atl main 159 159 O_____________ hurdat_atl AL021948 27.6000 -89.4000 TD 30 -1 1 0
1948190N28271 1948 43 NA GM NOT_NAMED 1948-07-08 03:00:00 TS 27.6350 -89.4150 main 159 148 P_____________ AL021948 27.6350 -89.4150 TD 30 -1 1 0
1948190N28271 1948 43 NA GM NOT_NAMED 1948-07-08 06:00:00 TS 27.7000 -89.4000 30 hurdat_atl main 148 135 O_____________ hurdat_atl AL021948 27.7000 -89.4000 TD 30 -1 2 24
1948190N28271 1948 43 NA GM NOT_NAMED 1948-07-08 09:00:00 TS 27.8200 -89.3299 main 135 112 P_____________ AL021948 27.8200 -89.3299 TD 30 -1 3 30
1948190N28271 1948 43 NA GM NOT_NAMED 1948-07-08 12:00:00 TS 28.0000 -89.2000 30 hurdat_atl main 112 89 O_____________ hurdat_atl AL021948 28.0000 -89.2000 TD 30 -1 5 34
1948190N28271 1948 43 NA GM NOT_NAMED 1948-07-08 15:00:00 TS 28.2199 -89.0298 main 89 62 P_____________ AL021948 28.2199 -89.0298 TD 30 -1 6 35
1948190N28271 1948 43 NA GM NOT_NAMED 1948-07-08 18:00:00 TS 28.5000 -88.8000 30 hurdat_atl main 62 51 O_____________ hurdat_atl AL021948 28.5000 -88.8000 TD 30 -1 7 36
1948190N28271 1948 43 NA GM NOT_NAMED 1948-07-08 21:00:00 TS 28.8124 -88.5296 main 59 53 P_____________ AL021948 28.8124 -88.5296 TD 32 -1 9 37
1948190N28271 1948 43 NA GM NOT_NAMED 1948-07-09 00:00:00 TS 29.2000 -88.2000 35 hurdat_atl main 78 59 O_____________ hurdat_atl AL021948 29.2000 -88.2000 TS 35 0 11 35
1948190N28271 1948 43 NA GM NOT_NAMED 1948-07-09 03:00:00 TS 29.7361 -87.7856 main 59 11 P_____________ AL021948 29.7361 -87.7856 TS 35 0 12 35
1948190N28271 1948 43 NA GM NOT_NAMED 1948-07-09 06:00:00 TS 30.2000 -87.4000 35 hurdat_atl main 11 9 O_____________ hurdat_atl AL021948 30.2000 -87.4000 TS 35 0 11 37
1948190N28271 1948 43 NA GM NOT_NAMED 1948-07-09 07:00:00 TS 30.3000 -87.3000 35 hurdat_atl main 9 0 O_____________ hurdat_atl AL021948 30.3000 -87.3000 L TS 35 0 8 39
1948190N28271 1948 43 NA GM NOT_NAMED 1948-07-09 09:00:00 TS 30.5037 -87.1192 main 0 0 P_____________ AL021948 30.5037 -87.1192 TS 35 0 7 35
1948190N28271 1948 43 NA NA NOT_NAMED 1948-07-09 12:00:00 TS 30.8000 -86.9000 35 hurdat_atl main 0 0 O_____________ hurdat_atl AL021948 30.8000 -86.9000 TS 35 0 7 32
1948190N28271 1948 43 NA NA NOT_NAMED 1948-07-09 15:00:00 TS 31.0582 -86.7132 main 0 0 P_____________ AL021948 31.0582 -86.7132 TS 32 -1 6 27
1948190N28271 1948 43 NA NA NOT_NAMED 1948-07-09 18:00:00 TS 31.3000 -86.6000 30 hurdat_atl main 0 0 O_____________ hurdat_atl AL021948 31.3000 -86.6000 TD 30 -1 5 12
1948190N28271 1948 43 NA NA NOT_NAMED 1948-07-09 21:00:00 TS 31.5500 -86.5848 main 0 0 P_____________ AL021948 31.5500 -86.5848 TD 30 -1 5 2
1948190N28271 1948 43 NA NA NOT_NAMED 1948-07-10 00:00:00 TS 31.8000 -86.6000 30 hurdat_atl main 0 0 O_____________ hurdat_atl AL021948 31.8000 -86.6000 TD 30 -1 5 3
1948190N28271 1948 43 NA NA NOT_NAMED 1948-07-10 03:00:00 TS 32.0575 -86.5650 main 0 0 P_____________ AL021948 32.0575 -86.5650 TD 30 -1 5 10
1948190N28271 1948 43 NA NA NOT_NAMED 1948-07-10 06:00:00 TS 32.3000 -86.5000 30 hurdat_atl main 0 0 O_____________ hurdat_atl AL021948 32.3000 -86.5000 TD 30 -1 5 19
1948190N28271 1948 43 NA NA NOT_NAMED 1948-07-10 09:00:00 TS 32.4925 -86.3926 main 0 0 P_____________ AL021948 32.4925 -86.3926 TD 27 -1 4 23
1948190N28271 1948 43 NA NA NOT_NAMED 1948-07-10 12:00:00 TS 32.7000 -86.3000 25 hurdat_atl main 0 0 O_____________ hurdat_atl AL021948 32.7000 -86.3000 TD 25 -1 5 12
1948190N28271 1948 43 NA NA NOT_NAMED 1948-07-10 15:00:00 TS 32.9775 -86.2701 main 0 0 P_____________ AL021948 32.9775 -86.2701 TD 25 -1 6 1
1948190N28271 1948 43 NA NA NOT_NAMED 1948-07-10 18:00:00 TS 33.3000 -86.3000 25 hurdat_atl main 0 0 O_____________ hurdat_atl AL021948 33.3000 -86.3000 TD 25 -1 7 351
1948190N28271 1948 43 NA NA NOT_NAMED 1948-07-10 21:00:00 TS 33.6500 -86.3923 main 0 0 P_____________ AL021948 33.6500 -86.3923 TD 22 -1 7 347
1948190N28271 1948 43 NA NA NOT_NAMED 1948-07-11 00:00:00 TS 34.0000 -86.5000 20 hurdat_atl main 0 0 O_____________ hurdat_atl AL021948 34.0000 -86.5000 TD 20 -1 7 348
1948190N28271 1948 43 NA NA NOT_NAMED 1948-07-11 03:00:00 TS 34.3075 -86.5651 main 0 0 P_____________ AL021948 34.3075 -86.5651 TD 20 -1 6 352
1948190N28271 1948 43 NA NA NOT_NAMED 1948-07-11 06:00:00 TS 34.6000 -86.6000 20 hurdat_atl main 0 0 O_____________ hurdat_atl AL021948 34.6000 -86.6000 TD 20 -1 6 357
1948190N28271 1948 43 NA NA NOT_NAMED 1948-07-11 09:00:00 TS 34.9000 -86.6076 main 0 0 P_____________ AL021948 34.9000 -86.6076 TD 17 -1 6 1
1948190N28271 1948 43 NA NA NOT_NAMED 1948-07-11 12:00:00 TS 35.2000 -86.6000 15 hurdat_atl main 0 0 O_____________ hurdat_atl AL021948 35.2000 -86.6000 TD 15 -1 6 0
1948190N28271 1948 43 NA NA NOT_NAMED 1948-07-11 15:00:00 TS 35.5000 -86.5975 main 0 0 P_____________ AL021948 35.5000 -86.5975 TD 15 -1 6 1
1948190N28271 1948 43 NA NA NOT_NAMED 1948-07-11 18:00:00 TS 35.8000 -86.6000 15 hurdat_atl main 0 O_____________ hurdat_atl AL021948 35.8000 -86.6000 TD 15 -1 6 0

IBTrACS Databaseについて

本データベースは、米国NOAAが公開する1842年以降の世界の熱帯低気圧のベストトラックデータアーカイブInternational Best Track Archive for Climate Stewardship (IBTrACS)を、ウェブで閲覧しやすい形式に変換したものです。

最終更新日:2021-10-21